createdAt,value
2023-05-13T00:02:08.342Z,5.20
2023-05-13T00:04:39.742Z,4.70
2023-05-13T00:07:10.967Z,5.20
2023-05-13T00:09:42.555Z,4.60
2023-05-13T00:12:13.818Z,4.50
2023-05-13T00:14:44.913Z,4.50
2023-05-13T00:17:16.008Z,6.40
2023-05-13T00:19:47.161Z,5.80
2023-05-13T00:22:18.278Z,5.20
2023-05-13T00:27:18.684Z,4.40
2023-05-13T00:32:19.217Z,4.40
2023-05-13T00:37:20.138Z,4.80
2023-05-13T00:44:50.620Z,5.80
2023-05-13T00:47:22.383Z,6.50
2023-05-13T00:49:54.673Z,6.20
2023-05-13T00:52:25.696Z,6.30
2023-05-13T00:54:56.833Z,5.50
2023-05-13T00:57:28.050Z,4.60
2023-05-13T01:02:32.919Z,5.30
2023-05-13T01:05:17.016Z,6.40
2023-05-13T01:07:57.652Z,7.70
2023-05-13T01:10:36.803Z,6.10
2023-05-13T01:13:12.439Z,4.90
2023-05-13T01:15:50.707Z,5.40
2023-05-13T01:18:26.226Z,5.20
2023-05-13T01:20:57.862Z,5.70
2023-05-13T01:23:28.849Z,8.20
2023-05-13T01:26:00.839Z,5.80
2023-05-13T01:28:32.385Z,5.80
2023-05-13T01:31:03.604Z,5.10
2023-05-13T01:33:35.277Z,6.30
2023-05-13T01:36:07.987Z,5.70
2023-05-13T01:38:40.431Z,7.20
2023-05-13T01:41:12.217Z,6.60
2023-05-13T01:43:43.179Z,5.90
2023-05-13T01:48:46.714Z,7.30
2023-05-13T01:53:47.130Z,6.50
2023-05-13T01:56:18.305Z,7.50
2023-05-13T01:58:49.135Z,5.50
2023-05-13T02:01:22.476Z,6.30
2023-05-13T02:03:53.888Z,6.50
2023-05-13T02:06:25.018Z,8.60
2023-05-13T02:08:56.141Z,6.20
2023-05-13T02:13:56.500Z,6.60
2023-05-13T02:16:27.674Z,6.80
2023-05-13T02:18:58.940Z,6.50
2023-05-13T02:21:30.072Z,4.80
2023-05-13T02:24:01.059Z,6.20
2023-05-13T02:26:32.473Z,6.50
2023-05-13T02:29:03.635Z,5.50
2023-05-13T02:31:36.849Z,6.20
2023-05-13T02:34:08.066Z,7.00
2023-05-13T02:36:39.212Z,6.10
2023-05-13T02:39:10.906Z,7.30
2023-05-13T02:41:42.035Z,7.30
2023-05-13T02:46:44.262Z,7.10
2023-05-13T02:49:15.297Z,7.00
2023-05-13T02:51:46.318Z,5.70
2023-05-13T02:54:17.766Z,5.30
2023-05-13T02:56:48.779Z,6.00
2023-05-13T03:01:49.521Z,6.00
2023-05-13T03:04:21.014Z,5.00
2023-05-13T03:06:53.067Z,4.80
2023-05-13T03:09:24.158Z,7.40
2023-05-13T03:14:24.898Z,5.20
2023-05-13T03:16:56.089Z,6.60
2023-05-13T03:19:26.901Z,6.80
2023-05-13T03:21:57.919Z,4.70
2023-05-13T03:26:58.716Z,3.80
2023-05-13T03:29:29.742Z,4.70
2023-05-13T03:34:31.143Z,4.60
2023-05-13T03:37:02.062Z,5.90
2023-05-13T03:39:33.176Z,5.70
2023-05-13T03:42:04.152Z,5.00
2023-05-13T03:44:35.352Z,6.10
2023-05-13T03:49:36.016Z,3.80
2023-05-13T03:52:08.993Z,4.80
2023-05-13T03:54:40.040Z,4.10
2023-05-13T03:57:11.321Z,3.80
2023-05-13T03:59:42.507Z,4.00
2023-05-13T04:02:13.545Z,4.30
2023-05-13T04:04:44.873Z,5.90
2023-05-13T04:09:45.630Z,4.20
2023-05-13T04:12:18.182Z,6.30
2023-05-13T04:14:49.116Z,4.70
2023-05-13T04:17:20.142Z,5.90
2023-05-13T04:19:53.470Z,6.30
2023-05-13T04:22:25.569Z,4.00
2023-05-13T04:24:57.272Z,4.40
2023-05-13T04:27:28.355Z,4.60
2023-05-13T04:29:59.924Z,5.50
2023-05-13T04:32:31.468Z,5.30
2023-05-13T04:37:33.128Z,4.70
2023-05-13T04:42:33.718Z,7.60
2023-05-13T04:45:05.040Z,4.80
2023-05-13T04:47:38.173Z,6.20
2023-05-13T04:50:10.729Z,5.00
2023-05-13T04:52:43.151Z,7.10
2023-05-13T04:55:14.547Z,4.90
2023-05-13T04:57:45.561Z,4.40
2023-05-13T05:00:18.749Z,4.80
2023-05-13T05:02:49.771Z,4.90
2023-05-13T05:07:50.249Z,5.00
2023-05-13T05:12:52.004Z,3.60
2023-05-13T05:15:23.437Z,4.60
2023-05-13T05:17:54.652Z,5.50
2023-05-13T05:20:25.605Z,4.30
2023-05-13T05:22:56.580Z,5.70
2023-05-13T05:25:27.770Z,5.80
2023-05-13T05:27:58.860Z,4.30
2023-05-13T05:30:30.588Z,3.30
2023-05-13T05:33:01.762Z,3.90
2023-05-13T05:35:33.427Z,3.90
2023-05-13T05:38:05.211Z,4.60
2023-05-13T05:40:37.446Z,4.40
2023-05-13T05:43:08.701Z,4.30
2023-05-13T05:45:40.815Z,3.70
2023-05-13T05:48:11.959Z,4.90
2023-05-13T05:50:43.338Z,4.70
2023-05-13T05:53:14.458Z,4.60
2023-05-13T05:55:45.511Z,4.00
2023-05-13T05:58:19.831Z,4.30
2023-05-13T06:00:50.808Z,4.60
2023-05-13T06:03:22.123Z,5.50
2023-05-13T06:05:53.277Z,4.10
2023-05-13T06:08:29.991Z,5.10
2023-05-13T06:11:01.732Z,3.70
2023-05-13T06:13:32.865Z,4.10
2023-05-13T06:16:04.118Z,3.40
2023-05-13T06:18:35.247Z,6.00
2023-05-13T06:21:06.997Z,4.90
2023-05-13T06:23:37.987Z,4.70
2023-05-13T06:26:08.981Z,4.40
2023-05-13T06:28:40.076Z,4.40
2023-05-13T06:31:11.036Z,2.70
2023-05-13T06:33:42.235Z,4.50
2023-05-13T06:36:13.233Z,4.20
2023-05-13T06:38:44.232Z,6.70
2023-05-13T06:41:15.399Z,2.80
2023-05-13T06:43:48.857Z,2.80
2023-05-13T06:46:19.910Z,2.80
2023-05-13T06:48:52.469Z,5.40
2023-05-13T06:51:23.383Z,2.70
2023-05-13T06:53:54.417Z,5.60
2023-05-13T06:56:26.028Z,12.40
2023-05-13T06:58:57.551Z,2.70
2023-05-13T07:01:29.154Z,2.20
2023-05-13T07:04:00.424Z,3.30
2023-05-13T07:06:31.674Z,2.10
2023-05-13T07:09:07.165Z,2.30
2023-05-13T07:11:39.501Z,2.80
2023-05-13T07:14:10.615Z,1.60
2023-05-13T07:16:41.710Z,4.00
2023-05-13T07:19:12.835Z,3.90
2023-05-13T07:21:44.166Z,2.00
2023-05-13T07:24:15.277Z,2.50
2023-05-13T07:26:46.367Z,3.10
2023-05-13T07:29:17.222Z,2.30
2023-05-13T07:31:48.285Z,2.10
2023-05-13T07:34:19.235Z,3.00
2023-05-13T07:36:50.341Z,2.10
2023-05-13T07:39:21.169Z,2.60
2023-05-13T07:41:52.163Z,2.20
2023-05-13T07:44:23.624Z,1.40
2023-05-13T07:46:54.920Z,1.80
2023-05-13T07:49:26.210Z,2.60
2023-05-13T07:51:57.148Z,3.00
2023-05-13T07:54:28.126Z,3.60
2023-05-13T07:56:59.116Z,1.90
2023-05-13T07:59:30.457Z,2.60
2023-05-13T08:02:01.492Z,3.40
2023-05-13T08:04:33.513Z,2.30
2023-05-13T08:07:05.100Z,4.80
2023-05-13T08:09:36.265Z,2.90
2023-05-13T08:12:07.961Z,4.30
2023-05-13T08:14:39.090Z,2.90
2023-05-13T08:17:10.166Z,2.50
2023-05-13T08:19:41.631Z,2.30
2023-05-13T08:22:12.625Z,3.50
2023-05-13T08:24:44.083Z,3.20
2023-05-13T08:27:15.018Z,3.20
2023-05-13T08:29:46.104Z,3.70
2023-05-13T08:32:17.565Z,2.00
2023-05-13T08:34:49.065Z,3.00
2023-05-13T08:37:20.130Z,3.90
2023-05-13T08:39:51.248Z,3.10
2023-05-13T08:42:24.061Z,2.40
2023-05-13T08:44:55.046Z,2.60
2023-05-13T08:47:35.500Z,3.50
2023-05-13T08:50:09.794Z,3.30
2023-05-13T08:52:40.998Z,2.60
2023-05-13T08:55:12.731Z,2.10
2023-05-13T08:57:43.694Z,14.40
2023-05-13T09:00:18.043Z,3.60
2023-05-13T09:03:10.287Z,1.90
2023-05-13T09:05:41.658Z,3.60
2023-05-13T09:08:13.271Z,1.80
2023-05-13T09:10:45.083Z,2.60
2023-05-13T09:13:18.715Z,2.40
2023-05-13T09:15:51.730Z,3.00
2023-05-13T09:18:22.739Z,2.50
2023-05-13T09:20:53.916Z,3.00
2023-05-13T09:23:26.359Z,3.10
2023-05-13T09:25:57.413Z,2.10
2023-05-13T09:28:28.422Z,2.70
2023-05-13T09:30:59.610Z,1.80
2023-05-13T09:33:32.776Z,1.70
2023-05-13T09:36:08.383Z,3.30
2023-05-13T09:38:40.152Z,1.90
2023-05-13T09:41:12.943Z,2.80
2023-05-13T09:43:44.961Z,2.30
2023-05-13T09:46:15.934Z,2.40
2023-05-13T09:48:47.305Z,3.30
2023-05-13T09:51:19.243Z,3.90
2023-05-13T09:53:51.187Z,4.40
2023-05-13T09:56:25.356Z,2.70
2023-05-13T09:58:56.796Z,2.50
2023-05-13T10:01:28.680Z,3.20
2023-05-13T10:04:00.268Z,2.00
2023-05-13T10:06:34.354Z,2.40
2023-05-13T10:09:08.312Z,2.90
2023-05-13T10:11:40.365Z,2.10
2023-05-13T10:14:11.718Z,2.80
2023-05-13T10:16:43.103Z,7.50
2023-05-13T10:19:15.282Z,3.40
2023-05-13T10:21:47.186Z,1.90
2023-05-13T10:24:18.802Z,4.20
2023-05-13T10:26:53.402Z,5.00
2023-05-13T10:29:26.054Z,2.30
2023-05-13T10:31:58.667Z,2.00
2023-05-13T10:34:31.599Z,2.30
2023-05-13T10:37:17.408Z,2.70
2023-05-13T10:40:12.797Z,1.70
2023-05-13T10:42:48.195Z,3.50
2023-05-13T10:45:19.486Z,2.50
2023-05-13T10:47:52.963Z,2.50
2023-05-13T10:50:27.842Z,1.60
2023-05-13T10:53:03.341Z,2.70
2023-05-13T10:55:45.599Z,2.00
2023-05-13T10:58:22.374Z,2.20
2023-05-13T11:00:53.590Z,2.30
2023-05-13T11:03:32.213Z,2.20
2023-05-13T11:06:16.616Z,1.90
2023-05-13T11:08:49.592Z,2.70
2023-05-13T11:11:30.560Z,2.80
2023-05-13T11:14:15.252Z,2.40
2023-05-13T11:16:53.692Z,2.50
2023-05-13T11:19:27.333Z,11.30
2023-05-13T11:22:05.428Z,2.90
2023-05-13T11:24:37.182Z,1.80
2023-05-13T11:27:17.784Z,2.60
2023-05-13T11:29:55.203Z,1.60
2023-05-13T11:32:58.811Z,1.70
2023-05-13T11:35:31.682Z,4.50
2023-05-13T11:38:05.805Z,4.00
2023-05-13T11:40:39.104Z,3.30
2023-05-13T11:43:10.789Z,4.70
2023-05-13T11:45:42.614Z,5.50
2023-05-13T11:48:30.277Z,3.40
2023-05-13T11:51:01.487Z,1.70
2023-05-13T11:53:32.755Z,2.10
2023-05-13T11:56:12.992Z,3.00
2023-05-13T11:58:47.248Z,3.20
2023-05-13T12:01:45.677Z,1.80
2023-05-13T12:04:16.732Z,1.80
2023-05-13T12:06:49.470Z,3.90
2023-05-13T12:09:23.488Z,2.00
2023-05-13T12:12:02.998Z,4.50
2023-05-13T12:14:35.067Z,2.90
2023-05-13T12:17:06.608Z,3.40
2023-05-13T12:19:38.545Z,2.70
2023-05-13T12:22:10.026Z,2.00
2023-05-13T12:24:42.701Z,3.00
2023-05-13T12:27:14.254Z,2.80
2023-05-13T12:29:45.775Z,2.20
2023-05-13T12:32:19.607Z,2.30
2023-05-13T12:34:52.929Z,2.30
2023-05-13T12:37:27.292Z,2.50
2023-05-13T12:42:57.372Z,3.30
2023-05-13T12:45:32.536Z,4.70
2023-05-13T12:48:05.215Z,2.70
2023-05-13T12:50:36.542Z,3.00
2023-05-13T12:53:07.482Z,3.20
2023-05-13T12:55:40.359Z,3.00
2023-05-13T12:58:14.426Z,3.50
2023-05-13T13:00:45.354Z,3.60
2023-05-13T13:03:16.970Z,3.00
2023-05-13T13:05:48.172Z,5.30
2023-05-13T13:08:19.443Z,3.90
2023-05-13T13:10:50.484Z,4.80
2023-05-13T13:13:21.524Z,4.20
2023-05-13T13:15:52.619Z,4.30
2023-05-13T13:18:24.646Z,4.10
2023-05-13T13:20:56.246Z,4.90
2023-05-13T13:23:27.132Z,6.30
2023-05-13T13:25:59.284Z,4.00
2023-05-13T13:28:31.824Z,3.80
2023-05-13T13:31:02.901Z,3.90
2023-05-13T13:33:33.956Z,3.50
2023-05-13T13:36:05.737Z,4.10
2023-05-13T13:38:36.977Z,4.70
2023-05-13T13:41:08.228Z,5.10
2023-05-13T13:43:39.638Z,5.40
2023-05-13T13:46:11.101Z,3.80
2023-05-13T13:48:42.178Z,3.50
2023-05-13T13:51:13.257Z,6.60
2023-05-13T13:53:44.251Z,5.70
2023-05-13T13:56:15.438Z,5.50
2023-05-13T13:58:46.497Z,6.10
2023-05-13T14:01:19.746Z,5.20
2023-05-13T14:03:52.256Z,4.90
2023-05-13T14:06:23.236Z,7.50
2023-05-13T14:08:54.701Z,5.20
2023-05-13T14:11:25.726Z,4.60
2023-05-13T14:13:56.729Z,5.90
2023-05-13T14:16:28.084Z,5.70
2023-05-13T14:18:59.491Z,5.30
2023-05-13T14:21:30.921Z,5.00
2023-05-13T14:24:02.195Z,5.70
2023-05-13T14:26:33.700Z,9.30
2023-05-13T14:29:04.709Z,7.60
2023-05-13T14:31:36.035Z,9.40
2023-05-13T14:34:08.114Z,7.00
2023-05-13T14:36:39.320Z,6.70
2023-05-13T14:39:10.917Z,5.50
2023-05-13T14:41:42.635Z,7.40
2023-05-13T14:44:14.193Z,5.20
2023-05-13T14:46:45.498Z,6.00
2023-05-13T14:49:16.683Z,4.30
2023-05-13T14:51:47.806Z,5.20
2023-05-13T14:54:18.864Z,4.00
2023-05-13T14:56:50.020Z,4.00
2023-05-13T14:59:21.149Z,5.30
2023-05-13T15:01:52.434Z,3.50
2023-05-13T15:04:23.550Z,5.40
2023-05-13T15:06:55.665Z,3.40
2023-05-13T15:09:26.803Z,6.60
2023-05-13T15:11:58.053Z,4.70
2023-05-13T15:14:29.180Z,5.10
2023-05-13T15:17:00.401Z,3.20
2023-05-13T15:19:32.050Z,4.30
2023-05-13T15:22:03.076Z,6.50
2023-05-13T15:24:34.742Z,4.20
2023-05-13T15:27:06.014Z,3.20
2023-05-13T15:29:37.080Z,3.90
2023-05-13T15:32:09.699Z,4.80
2023-05-13T15:34:40.670Z,3.90
2023-05-13T15:37:11.553Z,3.90
2023-05-13T15:39:42.522Z,3.40
2023-05-13T15:42:14.496Z,3.90
2023-05-13T15:44:46.600Z,8.40
2023-05-13T15:47:18.007Z,3.90
2023-05-13T15:49:50.777Z,2.70
2023-05-13T15:52:21.923Z,3.40
2023-05-13T15:54:53.086Z,5.10
2023-05-13T15:57:24.102Z,4.10
2023-05-13T15:59:55.681Z,3.60
2023-05-13T16:02:29.679Z,3.50
2023-05-13T16:05:02.393Z,3.70
2023-05-13T16:07:33.902Z,4.20
2023-05-13T16:10:05.565Z,3.70
2023-05-13T16:12:36.995Z,3.90
2023-05-13T16:15:09.569Z,5.50
2023-05-13T16:17:40.734Z,5.10
2023-05-13T16:20:13.351Z,6.10
2023-05-13T16:22:44.447Z,3.60
2023-05-13T16:25:15.504Z,9.80
2023-05-13T16:27:47.282Z,6.90
2023-05-13T16:30:18.688Z,6.30
2023-05-13T16:32:53.430Z,4.40
2023-05-13T16:35:25.192Z,4.50
2023-05-13T16:37:56.484Z,4.90
2023-05-13T16:40:27.990Z,6.70
2023-05-13T16:43:01.687Z,7.40
2023-05-13T16:45:34.486Z,8.50
2023-05-13T16:48:05.815Z,5.40
2023-05-13T16:50:37.330Z,6.30
2023-05-13T16:53:08.577Z,5.50
2023-05-13T16:55:39.743Z,4.80
2023-05-13T16:58:11.079Z,6.00
2023-05-13T17:00:42.107Z,5.60
2023-05-13T17:03:13.895Z,4.40
2023-05-13T17:05:45.158Z,7.80
2023-05-13T17:08:17.592Z,5.30
2023-05-13T17:10:48.461Z,6.40
2023-05-13T17:13:20.351Z,5.30
2023-05-13T17:15:51.443Z,4.60
2023-05-13T17:18:22.535Z,5.00
2023-05-13T17:20:54.986Z,5.00
2023-05-13T17:23:26.480Z,4.30
2023-05-13T17:25:57.656Z,4.70
2023-05-13T17:28:28.759Z,5.80
2023-05-13T17:30:59.841Z,4.40
2023-05-13T17:33:31.059Z,5.50
2023-05-13T17:36:02.161Z,4.70
2023-05-13T17:38:33.635Z,5.00
2023-05-13T17:41:05.218Z,4.30
2023-05-13T17:43:36.406Z,4.90
2023-05-13T17:46:07.705Z,6.60
2023-05-13T17:48:38.946Z,3.30
2023-05-13T17:51:10.083Z,4.90
2023-05-13T17:53:41.064Z,4.00
2023-05-13T17:56:12.020Z,4.60
2023-05-13T17:58:42.914Z,5.30
2023-05-13T18:01:14.072Z,5.30
2023-05-13T18:03:45.328Z,4.80
2023-05-13T18:06:16.395Z,4.80
2023-05-13T18:08:47.425Z,4.90
2023-05-13T18:11:18.448Z,5.20
2023-05-13T18:13:49.426Z,6.80
2023-05-13T18:16:20.711Z,6.90
2023-05-13T18:18:51.955Z,7.70
2023-05-13T18:21:24.221Z,5.70
2023-05-13T18:23:55.226Z,5.60
2023-05-13T18:26:26.690Z,6.10
2023-05-13T18:28:57.743Z,4.60
2023-05-13T18:31:28.964Z,5.70
2023-05-13T18:33:59.908Z,5.70
2023-05-13T18:36:31.193Z,6.00
2023-05-13T18:39:02.111Z,7.80
2023-05-13T18:41:33.047Z,6.20
2023-05-13T18:44:04.052Z,4.90
2023-05-13T18:46:35.306Z,5.40
2023-05-13T18:49:06.412Z,5.80
2023-05-13T18:51:37.603Z,5.40
2023-05-13T18:54:09.118Z,4.20
2023-05-13T18:56:41.149Z,7.00
2023-05-13T18:59:12.258Z,5.40
2023-05-13T19:01:43.527Z,5.40
2023-05-13T19:04:15.316Z,5.70
2023-05-13T19:06:46.537Z,4.80
2023-05-13T19:09:17.636Z,5.50
2023-05-13T19:11:48.687Z,6.10
2023-05-13T19:14:19.892Z,5.00
2023-05-13T19:16:50.956Z,5.90
2023-05-13T19:19:21.970Z,5.60
2023-05-13T19:21:53.004Z,6.10
2023-05-13T19:24:23.980Z,5.30
2023-05-13T19:26:55.095Z,5.50
2023-05-13T19:29:26.025Z,5.10
2023-05-13T19:31:57.145Z,6.10
2023-05-13T19:34:28.058Z,5.60
2023-05-13T19:36:59.508Z,4.70
2023-05-13T19:39:30.763Z,5.40
2023-05-13T19:42:01.636Z,6.70
2023-05-13T19:44:34.097Z,6.50
2023-05-13T19:47:08.490Z,6.40
2023-05-13T19:49:40.132Z,7.80
2023-05-13T19:52:11.531Z,5.70
2023-05-13T19:54:42.906Z,6.20
2023-05-13T19:57:13.774Z,7.60
2023-05-13T19:59:45.178Z,7.40
2023-05-13T20:02:16.075Z,5.80
2023-05-13T20:04:47.325Z,7.60
2023-05-13T20:07:18.589Z,7.40
2023-05-13T20:09:49.669Z,10.80
2023-05-13T20:14:51.906Z,8.50
2023-05-13T20:17:23.891Z,8.50
2023-05-13T20:19:55.985Z,5.70
2023-05-13T20:22:27.669Z,7.10
2023-05-13T20:24:59.037Z,6.80
2023-05-13T20:27:30.044Z,6.20
2023-05-13T20:30:02.190Z,7.90
2023-05-13T20:32:33.783Z,6.90
2023-05-13T20:35:05.146Z,8.10
2023-05-13T20:37:36.529Z,7.00
2023-05-13T20:40:09.397Z,7.80
2023-05-13T20:42:40.380Z,7.00
2023-05-13T20:45:13.294Z,6.10
2023-05-13T20:47:44.230Z,6.90
2023-05-13T20:50:16.204Z,9.20
2023-05-13T20:52:47.400Z,7.60
2023-05-13T20:55:18.394Z,6.80
2023-05-13T20:57:51.129Z,6.40
2023-05-13T21:00:23.056Z,7.70
2023-05-13T21:02:54.425Z,7.90
2023-05-13T21:05:25.545Z,7.10
2023-05-13T21:07:56.672Z,8.70
2023-05-13T21:10:27.786Z,10.50
2023-05-13T21:12:58.689Z,8.70
2023-05-13T21:15:29.976Z,8.90
2023-05-13T21:18:01.062Z,9.70
2023-05-13T21:20:32.801Z,8.10
2023-05-13T21:23:04.049Z,8.60
2023-05-13T21:25:34.972Z,10.00
2023-05-13T21:28:06.691Z,8.00
2023-05-13T21:30:37.573Z,8.70
2023-05-13T21:33:08.738Z,7.10
2023-05-13T21:35:39.592Z,7.10
2023-05-13T21:38:12.362Z,11.40
2023-05-13T21:40:43.820Z,9.10
2023-05-13T21:43:14.933Z,9.50
2023-05-13T21:45:47.508Z,8.50
2023-05-13T21:48:19.377Z,8.30
2023-05-13T21:50:52.884Z,9.60
2023-05-13T21:53:23.996Z,7.20
2023-05-13T21:55:56.780Z,9.20
2023-05-13T21:58:28.234Z,9.00
2023-05-13T22:01:00.388Z,11.00
2023-05-13T22:03:32.059Z,12.60
2023-05-13T22:06:03.477Z,11.10
2023-05-13T22:08:35.522Z,8.90
2023-05-13T22:11:07.333Z,9.40
2023-05-13T22:13:38.265Z,7.70
2023-05-13T22:18:39.995Z,6.60
2023-05-13T22:21:11.224Z,10.40
2023-05-13T22:23:42.113Z,9.00
2023-05-13T22:26:13.182Z,8.50
2023-05-13T22:28:46.757Z,8.50
2023-05-13T22:31:18.199Z,7.80
2023-05-13T22:33:49.618Z,8.30
2023-05-13T22:36:20.706Z,9.10
2023-05-13T22:38:51.936Z,10.70
2023-05-13T22:41:23.855Z,10.50
2023-05-13T22:43:55.127Z,9.40
2023-05-13T22:46:26.195Z,9.00
2023-05-13T22:48:57.260Z,7.60
2023-05-13T22:53:57.329Z,8.70
2023-05-13T22:56:29.667Z,9.10
2023-05-13T22:59:00.594Z,12.30
2023-05-13T23:01:31.791Z,8.80
2023-05-13T23:04:03.307Z,10.10
2023-05-13T23:06:34.297Z,8.70
2023-05-13T23:09:05.804Z,9.50
2023-05-13T23:11:38.014Z,9.70
2023-05-13T23:14:09.420Z,9.60
2023-05-13T23:16:40.917Z,9.80
2023-05-13T23:19:13.866Z,8.50
2023-05-13T23:21:45.042Z,10.10
2023-05-13T23:24:16.143Z,9.00
2023-05-13T23:26:47.526Z,8.40
2023-05-13T23:29:18.617Z,11.60
2023-05-13T23:34:19.491Z,8.30
2023-05-13T23:36:50.769Z,10.60
2023-05-13T23:39:21.775Z,9.10
2023-05-13T23:44:22.656Z,9.30
2023-05-13T23:46:53.974Z,7.40
2023-05-13T23:51:54.349Z,8.70
2023-05-13T23:54:25.438Z,8.20
2023-05-13T23:56:56.233Z,8.30
